Big Falls, Wisconsin
Current Conditions -  °F | °C
As of 8:00 PM on Monday 24 Nov 2014 (Local Time) from KCLI Reporting Station
Light Snow Light Snow  
Wind Chill: 20°   Ceiling: 1400
Heat Index: 28°   Visibility: 2mi
Dew Point: 25°   Wind: 9mph
Humidity: 86%   Direction: 340°NNW
Pressure: 29.53"   Gusts: 18mph
Location:  44.62°N, 89.02°W
Report Text: KCLI 250200Z AUTO 34008G16KT 2SM -SN BKN014 OVC020 M02/M04 A2953 RMK AO2
Loading
Personal Weather Stations






























Interactive Weather Map New forecast layout! Learn more

10-Day Weather Forecast

Advertisements
Track Severe Weather on mobile